sensor_id;sensor_type;location;lat;lon;timestamp;P1;durP1;ratioP1;P2;durP2;ratioP2
13753;SDS011;6948;51.216;6.778;2023-04-05T00:01:23;7.33;;;5.90;;
13753;SDS011;6948;51.216;6.778;2023-04-05T00:03:51;9.00;;;6.07;;
13753;SDS011;6948;51.216;6.778;2023-04-05T00:06:18;8.57;;;6.30;;
13753;SDS011;6948;51.216;6.778;2023-04-05T00:08:50;9.10;;;6.30;;
13753;SDS011;6948;51.216;6.778;2023-04-05T00:11:19;9.97;;;6.80;;
13753;SDS011;6948;51.216;6.778;2023-04-05T00:13:46;10.93;;;6.43;;
13753;SDS011;6948;51.216;6.778;2023-04-05T00:16:12;9.93;;;6.80;;
13753;SDS011;6948;51.216;6.778;2023-04-05T00:18:39;10.90;;;7.20;;
13753;SDS011;6948;51.216;6.778;2023-04-05T00:21:14;10.23;;;7.40;;
13753;SDS011;6948;51.216;6.778;2023-04-05T00:23:40;9.90;;;6.50;;
13753;SDS011;6948;51.216;6.778;2023-04-05T00:26:09;9.77;;;6.90;;
13753;SDS011;6948;51.216;6.778;2023-04-05T00:28:36;9.93;;;6.90;;
13753;SDS011;6948;51.216;6.778;2023-04-05T00:31:02;9.47;;;6.70;;
13753;SDS011;6948;51.216;6.778;2023-04-05T00:33:29;10.33;;;6.13;;
13753;SDS011;6948;51.216;6.778;2023-04-05T00:35:55;9.97;;;6.63;;
13753;SDS011;6948;51.216;6.778;2023-04-05T00:38:20;9.67;;;6.43;;
13753;SDS011;6948;51.216;6.778;2023-04-05T00:40:46;7.90;;;6.03;;
13753;SDS011;6948;51.216;6.778;2023-04-05T00:43:12;10.27;;;6.20;;
13753;SDS011;6948;51.216;6.778;2023-04-05T00:45:38;8.23;;;5.80;;
13753;SDS011;6948;51.216;6.778;2023-04-05T00:48:04;10.33;;;5.83;;
13753;SDS011;6948;51.216;6.778;2023-04-05T00:50:30;9.03;;;6.20;;
13753;SDS011;6948;51.216;6.778;2023-04-05T00:52:56;12.47;;;6.07;;
13753;SDS011;6948;51.216;6.778;2023-04-05T00:55:23;12.63;;;6.50;;
13753;SDS011;6948;51.216;6.778;2023-04-05T00:57:50;8.60;;;5.90;;
13753;SDS011;6948;51.216;6.778;2023-04-05T01:00:17;8.80;;;6.00;;
13753;SDS011;6948;51.216;6.778;2023-04-05T01:02:47;8.47;;;5.93;;
13753;SDS011;6948;51.216;6.778;2023-04-05T01:05:28;12.20;;;6.20;;
13753;SDS011;6948;51.216;6.778;2023-04-05T01:08:13;10.30;;;6.30;;
13753;SDS011;6948;51.216;6.778;2023-04-05T01:10:47;7.97;;;5.63;;
13753;SDS011;6948;51.216;6.778;2023-04-05T01:13:19;8.70;;;5.83;;
13753;SDS011;6948;51.216;6.778;2023-04-05T01:15:45;8.37;;;6.17;;
13753;SDS011;6948;51.216;6.778;2023-04-05T01:18:11;8.53;;;6.50;;
13753;SDS011;6948;51.216;6.778;2023-04-05T01:20:39;8.50;;;6.07;;
13753;SDS011;6948;51.216;6.778;2023-04-05T01:34:36;10.53;;;6.00;;
13753;SDS011;6948;51.216;6.778;2023-04-05T01:37:10;9.77;;;6.07;;
13753;SDS011;6948;51.216;6.778;2023-04-05T01:39:39;11.60;;;6.13;;
13753;SDS011;6948;51.216;6.778;2023-04-05T01:42:06;10.17;;;6.17;;
13753;SDS011;6948;51.216;6.778;2023-04-05T01:44:32;7.53;;;6.13;;
13753;SDS011;6948;51.216;6.778;2023-04-05T01:46:58;8.27;;;6.17;;
13753;SDS011;6948;51.216;6.778;2023-04-05T01:49:24;11.83;;;6.77;;
13753;SDS011;6948;51.216;6.778;2023-04-05T01:51:49;10.43;;;6.50;;
13753;SDS011;6948;51.216;6.778;2023-04-05T01:54:15;8.47;;;6.57;;
13753;SDS011;6948;51.216;6.778;2023-04-05T01:56:41;9.63;;;6.40;;
13753;SDS011;6948;51.216;6.778;2023-04-05T01:59:07;10.90;;;6.43;;
13753;SDS011;6948;51.216;6.778;2023-04-05T02:01:32;10.37;;;6.13;;
13753;SDS011;6948;51.216;6.778;2023-04-05T02:03:58;10.10;;;6.23;;
13753;SDS011;6948;51.216;6.778;2023-04-05T02:06:24;9.23;;;6.03;;
13753;SDS011;6948;51.216;6.778;2023-04-05T02:08:50;10.43;;;6.73;;
13753;SDS011;6948;51.216;6.778;2023-04-05T02:11:16;8.63;;;6.13;;
13753;SDS011;6948;51.216;6.778;2023-04-05T02:13:41;9.53;;;6.73;;
13753;SDS011;6948;51.216;6.778;2023-04-05T02:16:07;10.83;;;6.63;;
13753;SDS011;6948;51.216;6.778;2023-04-05T02:18:33;9.87;;;6.80;;
13753;SDS011;6948;51.216;6.778;2023-04-05T02:21:07;10.03;;;6.23;;
13753;SDS011;6948;51.216;6.778;2023-04-05T02:23:35;11.90;;;7.07;;
13753;SDS011;6948;51.216;6.778;2023-04-05T02:26:01;9.67;;;6.37;;
13753;SDS011;6948;51.216;6.778;2023-04-05T02:28:27;9.77;;;6.67;;
13753;SDS011;6948;51.216;6.778;2023-04-05T02:30:53;12.80;;;6.80;;
13753;SDS011;6948;51.216;6.778;2023-04-05T02:33:19;7.87;;;6.50;;
13753;SDS011;6948;51.216;6.778;2023-04-05T02:35:47;8.90;;;6.83;;
13753;SDS011;6948;51.216;6.778;2023-04-05T02:38:14;9.10;;;6.47;;
13753;SDS011;6948;51.216;6.778;2023-04-05T02:40:40;12.13;;;7.00;;
13753;SDS011;6948;51.216;6.778;2023-04-05T02:43:06;8.57;;;6.57;;
13753;SDS011;6948;51.216;6.778;2023-04-05T02:45:31;10.30;;;6.80;;
13753;SDS011;6948;51.216;6.778;2023-04-05T02:47:57;9.73;;;6.87;;
13753;SDS011;6948;51.216;6.778;2023-04-05T02:50:23;8.20;;;5.97;;
13753;SDS011;6948;51.216;6.778;2023-04-05T02:52:49;9.53;;;6.17;;
13753;SDS011;6948;51.216;6.778;2023-04-05T02:55:15;8.70;;;6.70;;
13753;SDS011;6948;51.216;6.778;2023-04-05T02:57:42;11.30;;;6.60;;
13753;SDS011;6948;51.216;6.778;2023-04-05T03:00:08;9.63;;;6.53;;
13753;SDS011;6948;51.216;6.778;2023-04-05T03:02:36;9.67;;;6.70;;
13753;SDS011;6948;51.216;6.778;2023-04-05T03:05:02;10.50;;;6.80;;
13753;SDS011;6948;51.216;6.778;2023-04-05T03:07:28;12.17;;;6.47;;
13753;SDS011;6948;51.216;6.778;2023-04-05T03:09:54;10.17;;;6.30;;
13753;SDS011;6948;51.216;6.778;2023-04-05T03:12:20;9.33;;;6.57;;
13753;SDS011;6948;51.216;6.778;2023-04-05T03:14:46;9.23;;;6.60;;
13753;SDS011;6948;51.216;6.778;2023-04-05T03:17:12;10.60;;;6.63;;
13753;SDS011;6948;51.216;6.778;2023-04-05T03:19:38;11.43;;;6.80;;
13753;SDS011;6948;51.216;6.778;2023-04-05T03:22:04;10.13;;;6.37;;
13753;SDS011;6948;51.216;6.778;2023-04-05T03:24:30;7.63;;;6.63;;
13753;SDS011;6948;51.216;6.778;2023-04-05T03:26:55;8.43;;;6.27;;
13753;SDS011;6948;51.216;6.778;2023-04-05T03:29:26;12.00;;;6.60;;
13753;SDS011;6948;51.216;6.778;2023-04-05T03:31:52;8.93;;;6.27;;
13753;SDS011;6948;51.216;6.778;2023-04-05T03:34:17;8.30;;;6.40;;
13753;SDS011;6948;51.216;6.778;2023-04-05T03:36:43;9.83;;;6.67;;
13753;SDS011;6948;51.216;6.778;2023-04-05T03:39:10;10.27;;;6.43;;
13753;SDS011;6948;51.216;6.778;2023-04-05T03:41:37;9.73;;;6.47;;
13753;SDS011;6948;51.216;6.778;2023-04-05T03:44:04;8.27;;;6.17;;
13753;SDS011;6948;51.216;6.778;2023-04-05T03:46:30;8.80;;;6.20;;
13753;SDS011;6948;51.216;6.778;2023-04-05T03:48:56;9.67;;;6.23;;
13753;SDS011;6948;51.216;6.778;2023-04-05T03:51:22;12.97;;;7.00;;
13753;SDS011;6948;51.216;6.778;2023-04-05T03:53:49;9.67;;;6.27;;
13753;SDS011;6948;51.216;6.778;2023-04-05T03:56:15;8.33;;;6.23;;
13753;SDS011;6948;51.216;6.778;2023-04-05T03:58:41;8.33;;;6.07;;
13753;SDS011;6948;51.216;6.778;2023-04-05T04:01:06;7.57;;;5.77;;
13753;SDS011;6948;51.216;6.778;2023-04-05T04:03:32;10.33;;;5.57;;
13753;SDS011;6948;51.216;6.778;2023-04-05T04:06:01;7.60;;;5.73;;
13753;SDS011;6948;51.216;6.778;2023-04-05T04:08:27;8.07;;;5.37;;
13753;SDS011;6948;51.216;6.778;2023-04-05T04:10:53;7.53;;;5.60;;
13753;SDS011;6948;51.216;6.778;2023-04-05T04:13:18;9.13;;;5.63;;
13753;SDS011;6948;51.216;6.778;2023-04-05T04:15:44;7.20;;;5.93;;
13753;SDS011;6948;51.216;6.778;2023-04-05T04:18:10;8.23;;;6.00;;
13753;SDS011;6948;51.216;6.778;2023-04-05T04:20:37;7.87;;;5.53;;
13753;SDS011;6948;51.216;6.778;2023-04-05T04:23:03;7.47;;;5.57;;
13753;SDS011;6948;51.216;6.778;2023-04-05T04:25:30;11.97;;;6.30;;
13753;SDS011;6948;51.216;6.778;2023-04-05T04:27:56;9.10;;;5.63;;
13753;SDS011;6948;51.216;6.778;2023-04-05T04:30:22;7.53;;;5.80;;
13753;SDS011;6948;51.216;6.778;2023-04-05T04:32:49;7.43;;;5.60;;
13753;SDS011;6948;51.216;6.778;2023-04-05T04:35:17;7.67;;;5.60;;
13753;SDS011;6948;51.216;6.778;2023-04-05T04:37:46;8.33;;;5.70;;
13753;SDS011;6948;51.216;6.778;2023-04-05T04:40:13;7.20;;;6.07;;
13753;SDS011;6948;51.216;6.778;2023-04-05T04:42:43;10.03;;;6.03;;
13753;SDS011;6948;51.216;6.778;2023-04-05T04:45:11;8.73;;;5.70;;
13753;SDS011;6948;51.216;6.778;2023-04-05T04:47:39;11.20;;;5.80;;
13753;SDS011;6948;51.216;6.778;2023-04-05T04:50:06;7.63;;;5.87;;
13753;SDS011;6948;51.216;6.778;2023-04-05T04:52:33;12.13;;;6.10;;
13753;SDS011;6948;51.216;6.778;2023-04-05T04:54:59;9.50;;;5.90;;
13753;SDS011;6948;51.216;6.778;2023-04-05T04:57:26;6.77;;;5.80;;
13753;SDS011;6948;51.216;6.778;2023-04-05T04:59:52;8.33;;;5.43;;
13753;SDS011;6948;51.216;6.778;2023-04-05T05:02:22;8.90;;;5.37;;
13753;SDS011;6948;51.216;6.778;2023-04-05T05:04:48;8.30;;;5.70;;
13753;SDS011;6948;51.216;6.778;2023-04-05T05:07:14;10.17;;;5.73;;
13753;SDS011;6948;51.216;6.778;2023-04-05T05:09:41;8.37;;;5.43;;
13753;SDS011;6948;51.216;6.778;2023-04-05T05:12:07;11.40;;;6.17;;
13753;SDS011;6948;51.216;6.778;2023-04-05T05:14:33;8.03;;;5.27;;
13753;SDS011;6948;51.216;6.778;2023-04-05T05:16:59;7.80;;;5.73;;
13753;SDS011;6948;51.216;6.778;2023-04-05T05:19:24;9.10;;;5.30;;
13753;SDS011;6948;51.216;6.778;2023-04-05T05:21:50;7.73;;;5.87;;
13753;SDS011;6948;51.216;6.778;2023-04-05T05:24:17;7.50;;;5.57;;
13753;SDS011;6948;51.216;6.778;2023-04-05T05:26:43;8.00;;;5.63;;
13753;SDS011;6948;51.216;6.778;2023-04-05T05:32:26;10.77;;;5.80;;
13753;SDS011;6948;51.216;6.778;2023-04-05T05:34:52;7.13;;;5.33;;
13753;SDS011;6948;51.216;6.778;2023-04-05T05:37:17;9.00;;;5.43;;
13753;SDS011;6948;51.216;6.778;2023-04-05T05:39:43;8.77;;;6.03;;
13753;SDS011;6948;51.216;6.778;2023-04-05T05:42:09;8.53;;;6.10;;
13753;SDS011;6948;51.216;6.778;2023-04-05T05:44:35;7.63;;;5.60;;
13753;SDS011;6948;51.216;6.778;2023-04-05T05:47:01;7.03;;;5.70;;
13753;SDS011;6948;51.216;6.778;2023-04-05T05:49:27;8.80;;;5.83;;
13753;SDS011;6948;51.216;6.778;2023-04-05T05:51:53;9.87;;;5.80;;
13753;SDS011;6948;51.216;6.778;2023-04-05T05:54:18;7.40;;;6.00;;
13753;SDS011;6948;51.216;6.778;2023-04-05T05:56:44;10.30;;;6.10;;
13753;SDS011;6948;51.216;6.778;2023-04-05T05:59:10;9.30;;;6.27;;
13753;SDS011;6948;51.216;6.778;2023-04-05T06:01:36;11.13;;;6.03;;
13753;SDS011;6948;51.216;6.778;2023-04-05T06:04:03;9.90;;;6.13;;
13753;SDS011;6948;51.216;6.778;2023-04-05T06:06:29;7.93;;;5.47;;
13753;SDS011;6948;51.216;6.778;2023-04-05T06:08:57;11.20;;;6.00;;
13753;SDS011;6948;51.216;6.778;2023-04-05T06:11:23;7.53;;;5.37;;
13753;SDS011;6948;51.216;6.778;2023-04-05T06:13:49;7.67;;;5.57;;
13753;SDS011;6948;51.216;6.778;2023-04-05T06:16:16;8.80;;;5.63;;
13753;SDS011;6948;51.216;6.778;2023-04-05T06:18:42;6.57;;;5.20;;
13753;SDS011;6948;51.216;6.778;2023-04-05T06:21:08;9.17;;;5.63;;
13753;SDS011;6948;51.216;6.778;2023-04-05T06:23:34;11.67;;;5.70;;
13753;SDS011;6948;51.216;6.778;2023-04-05T06:26:00;8.23;;;5.53;;
13753;SDS011;6948;51.216;6.778;2023-04-05T06:28:26;9.97;;;5.10;;
13753;SDS011;6948;51.216;6.778;2023-04-05T06:30:52;7.07;;;5.27;;
13753;SDS011;6948;51.216;6.778;2023-04-05T06:33:19;11.40;;;5.90;;
13753;SDS011;6948;51.216;6.778;2023-04-05T06:35:45;15.57;;;8.23;;
13753;SDS011;6948;51.216;6.778;2023-04-05T06:38:11;11.57;;;6.50;;
13753;SDS011;6948;51.216;6.778;2023-04-05T06:40:37;12.47;;;6.60;;
13753;SDS011;6948;51.216;6.778;2023-04-05T06:43:03;11.90;;;6.53;;
13753;SDS011;6948;51.216;6.778;2023-04-05T06:45:28;11.57;;;6.20;;
13753;SDS011;6948;51.216;6.778;2023-04-05T06:47:55;8.43;;;6.20;;
13753;SDS011;6948;51.216;6.778;2023-04-05T06:50:21;10.27;;;6.77;;
13753;SDS011;6948;51.216;6.778;2023-04-05T06:52:46;10.80;;;6.70;;
13753;SDS011;6948;51.216;6.778;2023-04-05T06:55:12;7.73;;;5.90;;
13753;SDS011;6948;51.216;6.778;2023-04-05T06:57:38;11.23;;;6.60;;
13753;SDS011;6948;51.216;6.778;2023-04-05T07:00:03;13.33;;;7.20;;
13753;SDS011;6948;51.216;6.778;2023-04-05T07:02:37;12.63;;;6.43;;
13753;SDS011;6948;51.216;6.778;2023-04-05T07:05:03;9.63;;;5.70;;
13753;SDS011;6948;51.216;6.778;2023-04-05T07:07:30;8.10;;;5.97;;
13753;SDS011;6948;51.216;6.778;2023-04-05T07:09:57;8.83;;;5.80;;
13753;SDS011;6948;51.216;6.778;2023-04-05T07:12:22;8.20;;;5.30;;
13753;SDS011;6948;51.216;6.778;2023-04-05T07:14:48;7.60;;;5.37;;
13753;SDS011;6948;51.216;6.778;2023-04-05T07:17:14;10.67;;;5.97;;
13753;SDS011;6948;51.216;6.778;2023-04-05T07:19:39;12.63;;;6.77;;
13753;SDS011;6948;51.216;6.778;2023-04-05T07:22:05;10.60;;;6.60;;
13753;SDS011;6948;51.216;6.778;2023-04-05T07:24:31;10.13;;;5.57;;
13753;SDS011;6948;51.216;6.778;2023-04-05T07:26:57;17.93;;;7.17;;
13753;SDS011;6948;51.216;6.778;2023-04-05T07:29:22;6.87;;;5.70;;
13753;SDS011;6948;51.216;6.778;2023-04-05T07:31:48;5.97;;;4.53;;
13753;SDS011;6948;51.216;6.778;2023-04-05T07:34:14;9.50;;;5.10;;
13753;SDS011;6948;51.216;6.778;2023-04-05T07:36:39;9.73;;;5.03;;
13753;SDS011;6948;51.216;6.778;2023-04-05T07:39:05;8.63;;;5.60;;
13753;SDS011;6948;51.216;6.778;2023-04-05T07:41:31;8.17;;;5.40;;
13753;SDS011;6948;51.216;6.778;2023-04-05T07:43:59;10.20;;;5.60;;
13753;SDS011;6948;51.216;6.778;2023-04-05T07:46:25;9.03;;;5.50;;
13753;SDS011;6948;51.216;6.778;2023-04-05T07:48:51;7.57;;;4.97;;
13753;SDS011;6948;51.216;6.778;2023-04-05T07:51:17;6.40;;;5.20;;
13753;SDS011;6948;51.216;6.778;2023-04-05T07:53:43;9.33;;;5.13;;
13753;SDS011;6948;51.216;6.778;2023-04-05T07:56:10;6.43;;;4.93;;
13753;SDS011;6948;51.216;6.778;2023-04-05T07:58:37;7.90;;;5.13;;
13753;SDS011;6948;51.216;6.778;2023-04-05T08:01:05;7.07;;;5.37;;
13753;SDS011;6948;51.216;6.778;2023-04-05T08:03:31;17.27;;;11.53;;
13753;SDS011;6948;51.216;6.778;2023-04-05T08:06:09;9.47;;;6.00;;
13753;SDS011;6948;51.216;6.778;2023-04-05T08:08:41;7.07;;;4.70;;
13753;SDS011;6948;51.216;6.778;2023-04-05T08:11:07;6.83;;;5.17;;
13753;SDS011;6948;51.216;6.778;2023-04-05T08:13:33;8.73;;;5.07;;
13753;SDS011;6948;51.216;6.778;2023-04-05T08:16:00;8.20;;;5.20;;
13753;SDS011;6948;51.216;6.778;2023-04-05T08:18:26;9.37;;;5.17;;
13753;SDS011;6948;51.216;6.778;2023-04-05T08:20:52;7.80;;;6.00;;
13753;SDS011;6948;51.216;6.778;2023-04-05T08:23:19;8.43;;;5.60;;
13753;SDS011;6948;51.216;6.778;2023-04-05T08:25:44;8.07;;;5.43;;
13753;SDS011;6948;51.216;6.778;2023-04-05T08:28:10;8.33;;;5.50;;
13753;SDS011;6948;51.216;6.778;2023-04-05T08:30:37;8.50;;;5.43;;
13753;SDS011;6948;51.216;6.778;2023-04-05T08:33:03;7.77;;;5.30;;
13753;SDS011;6948;51.216;6.778;2023-04-05T08:35:28;10.03;;;5.70;;
13753;SDS011;6948;51.216;6.778;2023-04-05T08:37:55;7.20;;;5.60;;
13753;SDS011;6948;51.216;6.778;2023-04-05T08:40:21;6.27;;;5.20;;
13753;SDS011;6948;51.216;6.778;2023-04-05T08:42:52;6.10;;;5.40;;
13753;SDS011;6948;51.216;6.778;2023-04-05T08:45:21;7.83;;;5.67;;
13753;SDS011;6948;51.216;6.778;2023-04-05T08:47:50;7.27;;;5.47;;
13753;SDS011;6948;51.216;6.778;2023-04-05T08:50:18;7.97;;;5.53;;
13753;SDS011;6948;51.216;6.778;2023-04-05T08:52:45;6.87;;;5.67;;
13753;SDS011;6948;51.216;6.778;2023-04-05T08:55:14;9.53;;;6.00;;
13753;SDS011;6948;51.216;6.778;2023-04-05T08:57:41;8.37;;;6.10;;
13753;SDS011;6948;51.216;6.778;2023-04-05T09:00:10;9.03;;;5.23;;
13753;SDS011;6948;51.216;6.778;2023-04-05T09:02:36;9.87;;;5.93;;
13753;SDS011;6948;51.216;6.778;2023-04-05T09:05:03;7.27;;;5.40;;
13753;SDS011;6948;51.216;6.778;2023-04-05T09:07:33;6.87;;;5.50;;
13753;SDS011;6948;51.216;6.778;2023-04-05T09:10:00;7.77;;;5.87;;
13753;SDS011;6948;51.216;6.778;2023-04-05T09:12:29;7.90;;;5.60;;
13753;SDS011;6948;51.216;6.778;2023-04-05T09:14:56;7.07;;;5.37;;
13753;SDS011;6948;51.216;6.778;2023-04-05T09:17:25;6.83;;;5.57;;
13753;SDS011;6948;51.216;6.778;2023-04-05T09:19:52;8.83;;;5.93;;
13753;SDS011;6948;51.216;6.778;2023-04-05T09:22:17;7.17;;;5.57;;
13753;SDS011;6948;51.216;6.778;2023-04-05T09:24:44;9.70;;;6.03;;
13753;SDS011;6948;51.216;6.778;2023-04-05T09:29:48;6.77;;;5.00;;
13753;SDS011;6948;51.216;6.778;2023-04-05T09:32:15;8.27;;;5.93;;
13753;SDS011;6948;51.216;6.778;2023-04-05T09:34:43;7.43;;;5.73;;
13753;SDS011;6948;51.216;6.778;2023-04-05T09:37:13;8.00;;;5.80;;
13753;SDS011;6948;51.216;6.778;2023-04-05T09:39:40;6.90;;;5.30;;
13753;SDS011;6948;51.216;6.778;2023-04-05T09:44:59;7.93;;;5.50;;
13753;SDS011;6948;51.216;6.778;2023-04-05T09:47:27;7.00;;;5.80;;
13753;SDS011;6948;51.216;6.778;2023-04-05T09:49:57;9.00;;;5.90;;
13753;SDS011;6948;51.216;6.778;2023-04-05T09:52:24;6.17;;;5.30;;
13753;SDS011;6948;51.216;6.778;2023-04-05T09:54:53;7.60;;;5.90;;
13753;SDS011;6948;51.216;6.778;2023-04-05T09:57:22;8.80;;;5.97;;
13753;SDS011;6948;51.216;6.778;2023-04-05T09:59:50;6.73;;;5.70;;
13753;SDS011;6948;51.216;6.778;2023-04-05T10:02:16;6.53;;;5.67;;
13753;SDS011;6948;51.216;6.778;2023-04-05T10:04:43;7.70;;;6.73;;
13753;SDS011;6948;51.216;6.778;2023-04-05T10:07:10;10.13;;;6.80;;
13753;SDS011;6948;51.216;6.778;2023-04-05T10:09:38;8.00;;;6.50;;
13753;SDS011;6948;51.216;6.778;2023-04-05T10:12:05;8.13;;;6.30;;
13753;SDS011;6948;51.216;6.778;2023-04-05T10:14:33;9.67;;;6.40;;
13753;SDS011;6948;51.216;6.778;2023-04-05T10:17:10;8.00;;;6.60;;
13753;SDS011;6948;51.216;6.778;2023-04-05T10:28:10;9.37;;;6.27;;
13753;SDS011;6948;51.216;6.778;2023-04-05T10:30:43;7.43;;;6.17;;
13753;SDS011;6948;51.216;6.778;2023-04-05T10:33:15;8.00;;;6.37;;
13753;SDS011;6948;51.216;6.778;2023-04-05T10:38:59;7.27;;;6.03;;
13753;SDS011;6948;51.216;6.778;2023-04-05T10:41:29;8.60;;;6.10;;
13753;SDS011;6948;51.216;6.778;2023-04-05T10:43:59;6.47;;;5.83;;
13753;SDS011;6948;51.216;6.778;2023-04-05T10:46:27;8.20;;;5.80;;
13753;SDS011;6948;51.216;6.778;2023-04-05T10:48:58;9.50;;;6.10;;
13753;SDS011;6948;51.216;6.778;2023-04-05T10:51:43;9.63;;;6.03;;
13753;SDS011;6948;51.216;6.778;2023-04-05T10:54:10;6.97;;;5.90;;
13753;SDS011;6948;51.216;6.778;2023-04-05T10:56:36;7.50;;;6.00;;
13753;SDS011;6948;51.216;6.778;2023-04-05T10:59:03;6.73;;;6.00;;
13753;SDS011;6948;51.216;6.778;2023-04-05T11:01:29;8.53;;;6.33;;
13753;SDS011;6948;51.216;6.778;2023-04-05T11:03:55;7.17;;;5.93;;
13753;SDS011;6948;51.216;6.778;2023-04-05T11:06:36;10.10;;;6.67;;
13753;SDS011;6948;51.216;6.778;2023-04-05T11:09:18;9.97;;;6.20;;
13753;SDS011;6948;51.216;6.778;2023-04-05T11:11:46;7.83;;;6.50;;
13753;SDS011;6948;51.216;6.778;2023-04-05T11:14:23;6.80;;;6.13;;
13753;SDS011;6948;51.216;6.778;2023-04-05T11:16:59;6.77;;;5.87;;
13753;SDS011;6948;51.216;6.778;2023-04-05T11:22:23;8.30;;;6.30;;
13753;SDS011;6948;51.216;6.778;2023-04-05T11:24:54;7.27;;;6.30;;
13753;SDS011;6948;51.216;6.778;2023-04-05T11:30:02;8.57;;;6.77;;
13753;SDS011;6948;51.216;6.778;2023-04-05T11:32:45;9.83;;;6.77;;
13753;SDS011;6948;51.216;6.778;2023-04-05T11:35:13;11.37;;;6.40;;
13753;SDS011;6948;51.216;6.778;2023-04-05T11:40:39;10.23;;;7.03;;
13753;SDS011;6948;51.216;6.778;2023-04-05T11:43:07;9.93;;;6.90;;
13753;SDS011;6948;51.216;6.778;2023-04-05T11:45:36;10.23;;;7.23;;
13753;SDS011;6948;51.216;6.778;2023-04-05T11:48:04;8.60;;;6.80;;
13753;SDS011;6948;51.216;6.778;2023-04-05T11:50:32;6.87;;;6.27;;
13753;SDS011;6948;51.216;6.778;2023-04-05T11:53:14;8.87;;;6.60;;
13753;SDS011;6948;51.216;6.778;2023-04-05T11:55:43;8.17;;;7.00;;
13753;SDS011;6948;51.216;6.778;2023-04-05T11:58:14;7.63;;;6.87;;
13753;SDS011;6948;51.216;6.778;2023-04-05T12:01:05;8.80;;;6.90;;
13753;SDS011;6948;51.216;6.778;2023-04-05T12:03:32;8.07;;;6.43;;
13753;SDS011;6948;51.216;6.778;2023-04-05T12:05:59;7.77;;;6.97;;
13753;SDS011;6948;51.216;6.778;2023-04-05T12:08:42;9.23;;;6.50;;
13753;SDS011;6948;51.216;6.778;2023-04-05T12:11:25;8.50;;;6.67;;
13753;SDS011;6948;51.216;6.778;2023-04-05T12:13:53;9.33;;;7.27;;
13753;SDS011;6948;51.216;6.778;2023-04-05T12:16:20;8.97;;;7.00;;
13753;SDS011;6948;51.216;6.778;2023-04-05T12:18:51;10.33;;;7.00;;
13753;SDS011;6948;51.216;6.778;2023-04-05T12:21:18;7.73;;;6.60;;
13753;SDS011;6948;51.216;6.778;2023-04-05T12:23:44;7.87;;;6.70;;
13753;SDS011;6948;51.216;6.778;2023-04-05T12:26:10;7.67;;;6.87;;
13753;SDS011;6948;51.216;6.778;2023-04-05T12:31:40;7.80;;;6.47;;
13753;SDS011;6948;51.216;6.778;2023-04-05T12:34:08;8.27;;;6.70;;
13753;SDS011;6948;51.216;6.778;2023-04-05T12:36:34;7.63;;;5.80;;
13753;SDS011;6948;51.216;6.778;2023-04-05T12:39:00;6.40;;;5.80;;
13753;SDS011;6948;51.216;6.778;2023-04-05T12:41:31;6.93;;;6.03;;
13753;SDS011;6948;51.216;6.778;2023-04-05T12:43:57;7.50;;;6.67;;
13753;SDS011;6948;51.216;6.778;2023-04-05T12:49:18;8.77;;;6.43;;
13753;SDS011;6948;51.216;6.778;2023-04-05T12:51:44;7.37;;;6.57;;
13753;SDS011;6948;51.216;6.778;2023-04-05T12:54:14;7.73;;;6.93;;
13753;SDS011;6948;51.216;6.778;2023-04-05T12:56:46;8.83;;;7.07;;
13753;SDS011;6948;51.216;6.778;2023-04-05T12:59:14;9.97;;;6.90;;
13753;SDS011;6948;51.216;6.778;2023-04-05T13:01:40;9.00;;;6.97;;
13753;SDS011;6948;51.216;6.778;2023-04-05T13:04:05;6.97;;;6.13;;
13753;SDS011;6948;51.216;6.778;2023-04-05T13:06:31;8.33;;;6.57;;
13753;SDS011;6948;51.216;6.778;2023-04-05T13:08:57;7.33;;;6.30;;
13753;SDS011;6948;51.216;6.778;2023-04-05T13:11:22;9.53;;;7.30;;
13753;SDS011;6948;51.216;6.778;2023-04-05T13:13:48;11.07;;;7.40;;
13753;SDS011;6948;51.216;6.778;2023-04-05T13:16:14;8.90;;;7.37;;
13753;SDS011;6948;51.216;6.778;2023-04-05T13:18:40;7.70;;;6.90;;
13753;SDS011;6948;51.216;6.778;2023-04-05T13:21:06;9.40;;;7.43;;
13753;SDS011;6948;51.216;6.778;2023-04-05T13:23:34;8.70;;;7.20;;
13753;SDS011;6948;51.216;6.778;2023-04-05T13:26:00;8.73;;;7.40;;
13753;SDS011;6948;51.216;6.778;2023-04-05T13:28:26;9.37;;;7.13;;
13753;SDS011;6948;51.216;6.778;2023-04-05T13:30:52;8.33;;;7.53;;
13753;SDS011;6948;51.216;6.778;2023-04-05T13:33:18;10.00;;;7.13;;
13753;SDS011;6948;51.216;6.778;2023-04-05T13:35:44;9.27;;;7.33;;
13753;SDS011;6948;51.216;6.778;2023-04-05T13:38:10;8.00;;;6.63;;
13753;SDS011;6948;51.216;6.778;2023-04-05T13:40:36;10.57;;;6.93;;
13753;SDS011;6948;51.216;6.778;2023-04-05T13:43:01;8.50;;;7.07;;
13753;SDS011;6948;51.216;6.778;2023-04-05T13:45:27;10.67;;;8.27;;
13753;SDS011;6948;51.216;6.778;2023-04-05T13:47:53;11.07;;;7.63;;
13753;SDS011;6948;51.216;6.778;2023-04-05T13:50:19;10.37;;;7.10;;
13753;SDS011;6948;51.216;6.778;2023-04-05T13:52:45;11.77;;;7.30;;
13753;SDS011;6948;51.216;6.778;2023-04-05T13:55:10;10.60;;;7.43;;
13753;SDS011;6948;51.216;6.778;2023-04-05T13:57:36;9.37;;;7.17;;
13753;SDS011;6948;51.216;6.778;2023-04-05T14:00:02;9.63;;;7.00;;
13753;SDS011;6948;51.216;6.778;2023-04-05T14:02:28;10.00;;;7.03;;
13753;SDS011;6948;51.216;6.778;2023-04-05T14:04:54;8.63;;;7.30;;
13753;SDS011;6948;51.216;6.778;2023-04-05T14:07:20;8.67;;;7.07;;
13753;SDS011;6948;51.216;6.778;2023-04-05T14:09:46;8.03;;;6.90;;
13753;SDS011;6948;51.216;6.778;2023-04-05T14:12:12;10.63;;;7.43;;
13753;SDS011;6948;51.216;6.778;2023-04-05T14:14:38;13.50;;;7.67;;
13753;SDS011;6948;51.216;6.778;2023-04-05T14:17:03;12.03;;;7.27;;
13753;SDS011;6948;51.216;6.778;2023-04-05T14:19:30;8.50;;;7.53;;
13753;SDS011;6948;51.216;6.778;2023-04-05T14:21:56;8.40;;;7.50;;
13753;SDS011;6948;51.216;6.778;2023-04-05T14:24:21;11.23;;;7.13;;
13753;SDS011;6948;51.216;6.778;2023-04-05T14:26:47;8.50;;;7.10;;
13753;SDS011;6948;51.216;6.778;2023-04-05T14:29:15;12.00;;;7.33;;
13753;SDS011;6948;51.216;6.778;2023-04-05T14:31:41;8.63;;;7.63;;
13753;SDS011;6948;51.216;6.778;2023-04-05T14:34:08;9.00;;;7.33;;
13753;SDS011;6948;51.216;6.778;2023-04-05T14:36:33;10.83;;;7.10;;
13753;SDS011;6948;51.216;6.778;2023-04-05T14:38:59;7.87;;;6.87;;
13753;SDS011;6948;51.216;6.778;2023-04-05T14:41:25;9.00;;;7.77;;
13753;SDS011;6948;51.216;6.778;2023-04-05T14:43:51;7.60;;;6.90;;
13753;SDS011;6948;51.216;6.778;2023-04-05T14:46:17;8.80;;;7.47;;
13753;SDS011;6948;51.216;6.778;2023-04-05T14:48:43;8.43;;;6.80;;
13753;SDS011;6948;51.216;6.778;2023-04-05T14:51:09;8.60;;;7.27;;
13753;SDS011;6948;51.216;6.778;2023-04-05T14:53:35;8.47;;;6.90;;
13753;SDS011;6948;51.216;6.778;2023-04-05T14:56:00;8.70;;;6.43;;
13753;SDS011;6948;51.216;6.778;2023-04-05T14:58:26;7.77;;;6.30;;
13753;SDS011;6948;51.216;6.778;2023-04-05T15:00:53;8.40;;;6.10;;
13753;SDS011;6948;51.216;6.778;2023-04-05T15:03:19;9.03;;;7.23;;
13753;SDS011;6948;51.216;6.778;2023-04-05T15:05:45;7.53;;;6.57;;
13753;SDS011;6948;51.216;6.778;2023-04-05T15:08:12;10.87;;;6.87;;
13753;SDS011;6948;51.216;6.778;2023-04-05T15:10:38;7.40;;;6.20;;
13753;SDS011;6948;51.216;6.778;2023-04-05T15:13:06;10.00;;;6.17;;
13753;SDS011;6948;51.216;6.778;2023-04-05T15:15:34;7.17;;;6.07;;
13753;SDS011;6948;51.216;6.778;2023-04-05T15:18:00;6.93;;;6.23;;
13753;SDS011;6948;51.216;6.778;2023-04-05T15:20:26;7.37;;;5.77;;
13753;SDS011;6948;51.216;6.778;2023-04-05T15:22:52;6.20;;;5.60;;
13753;SDS011;6948;51.216;6.778;2023-04-05T15:25:17;7.90;;;5.67;;
13753;SDS011;6948;51.216;6.778;2023-04-05T15:27:43;7.40;;;6.13;;
13753;SDS011;6948;51.216;6.778;2023-04-05T15:30:09;9.03;;;5.50;;
13753;SDS011;6948;51.216;6.778;2023-04-05T15:32:35;6.97;;;5.53;;
13753;SDS011;6948;51.216;6.778;2023-04-05T15:35:02;10.60;;;7.27;;
13753;SDS011;6948;51.216;6.778;2023-04-05T15:37:31;10.03;;;6.37;;
13753;SDS011;6948;51.216;6.778;2023-04-05T15:39:57;7.80;;;6.40;;
13753;SDS011;6948;51.216;6.778;2023-04-05T15:42:23;8.30;;;6.17;;
13753;SDS011;6948;51.216;6.778;2023-04-05T15:44:49;6.67;;;5.87;;